Initiation.

Vivez l'expérience pilote de chasse !


Deprecated: wp_make_content_images_responsive est obsolète depuis la version 5.5.0 ! Utilisez wp_filter_content_tags() à la place. in /home/flyandfubn/www/wp-includes/functions.php on line 4862

Accompagnés de vrais pilotes de chasse ayant volé sur Rafale et Mirage, venez partager l’expérience unique d’un vol en avion de combat.

Rejoignez notre flottille de chasse sur l’aérodrome de Reims-Prunay où sont basés nos 3 avions à réaction L39 Albatros.

Après l’essai d’équipements de sécurité, vous assisterez à un briefing détaillé de la mission où seront abordés l’enchainement des procédures et des figures de voltige.

J'y Vais !

Quelques informations.

Au cours d’un vol d’environ 30 minutes, vous aurez l’occasion de découvrir la région en basse altitude et à haute vitesse avant d’exécuter des évolutions de combat. Sensations garanties et une immersion inédite dans le monde des pilotes de chasse.

Nos pilotes, tous instructeurs, sont en mesure de vous proposer un vol d’initiation au pilotage pendant lequel vous pourrez découvrir le pilotage de cet avion de chasse.

Autre prestations.

Évènement client.
Formations.
METAR :

LFQA 142300Z AUTO VRB03KT 9999 FEW030 08/06 Q1009


vue en direct sur l'aérodrome
mentions légales politique de confidentialité
Cochet Concept
cx